sensor_id;sensor_type;location;lat;lon;timestamp;pressure;altitude;pressure_sealevel;temperature;humidity
77881;BME280;67077;50.298;18.996;2023-03-01T00:01:20;99183.80;;;-3.28;71.06
77881;BME280;67077;50.298;18.996;2023-03-01T00:03:47;99181.95;;;-3.32;70.97
77881;BME280;67077;50.298;18.996;2023-03-01T00:06:14;99184.52;;;-3.36;71.13
77881;BME280;67077;50.298;18.996;2023-03-01T00:08:41;99181.27;;;-3.40;71.13
77881;BME280;67077;50.298;18.996;2023-03-01T00:11:15;99182.00;;;-3.40;71.18
77881;BME280;67077;50.298;18.996;2023-03-01T00:13:44;99178.79;;;-3.37;71.31
77881;BME280;67077;50.298;18.996;2023-03-01T00:16:18;99177.05;;;-3.32;71.16
77881;BME280;67077;50.298;18.996;2023-03-01T00:18:45;99175.79;;;-3.32;71.05
77881;BME280;67077;50.298;18.996;2023-03-01T00:21:12;99181.12;;;-3.32;71.08
77881;BME280;67077;50.298;18.996;2023-03-01T00:23:40;99176.33;;;-3.34;70.95
77881;BME280;67077;50.298;18.996;2023-03-01T00:26:12;99171.39;;;-3.37;70.90
77881;BME280;67077;50.298;18.996;2023-03-01T00:28:40;99174.97;;;-3.41;71.03
77881;BME280;67077;50.298;18.996;2023-03-01T00:31:10;99173.78;;;-3.44;71.22
77881;BME280;67077;50.298;18.996;2023-03-01T00:33:38;99175.63;;;-3.47;71.08
77881;BME280;67077;50.298;18.996;2023-03-01T00:36:05;99175.83;;;-3.50;71.37
77881;BME280;67077;50.298;18.996;2023-03-01T00:38:36;99175.67;;;-3.48;71.38
77881;BME280;67077;50.298;18.996;2023-03-01T00:41:09;99179.48;;;-3.42;71.43
77881;BME280;67077;50.298;18.996;2023-03-01T00:43:36;99175.46;;;-3.37;71.05
77881;BME280;67077;50.298;18.996;2023-03-01T00:46:11;99176.09;;;-3.36;71.17
77881;BME280;67077;50.298;18.996;2023-03-01T00:52:17;99177.10;;;-3.41;71.19
77881;BME280;67077;50.298;18.996;2023-03-01T00:54:43;99172.41;;;-3.44;71.31
77881;BME280;67077;50.298;18.996;2023-03-01T00:57:10;99168.25;;;-3.48;71.26
77881;BME280;67077;50.298;18.996;2023-03-01T00:59:37;99163.91;;;-3.51;71.39
77881;BME280;67077;50.298;18.996;2023-03-01T01:02:03;99166.02;;;-3.54;71.38
77881;BME280;67077;50.298;18.996;2023-03-01T01:04:34;99166.89;;;-3.56;71.68
77881;BME280;67077;50.298;18.996;2023-03-01T01:07:00;99166.77;;;-3.57;71.54
77881;BME280;67077;50.298;18.996;2023-03-01T01:09:27;99160.52;;;-3.53;71.44
77881;BME280;67077;50.298;18.996;2023-03-01T01:11:53;99154.95;;;-3.49;71.43
77881;BME280;67077;50.298;18.996;2023-03-01T01:14:20;99159.31;;;-3.48;71.55
77881;BME280;67077;50.298;18.996;2023-03-01T01:16:47;99160.69;;;-3.50;71.58
77881;BME280;67077;50.298;18.996;2023-03-01T01:19:15;99164.00;;;-3.53;71.41
77881;BME280;67077;50.298;18.996;2023-03-01T01:21:41;99163.54;;;-3.53;71.50
77881;BME280;67077;50.298;18.996;2023-03-01T01:24:11;99160.49;;;-3.55;71.72
77881;BME280;67077;50.298;18.996;2023-03-01T01:26:38;99156.02;;;-3.59;71.88
77881;BME280;67077;50.298;18.996;2023-03-01T01:29:05;99151.15;;;-3.63;72.01
77881;BME280;67077;50.298;18.996;2023-03-01T01:31:34;99144.90;;;-3.64;71.83
77881;BME280;67077;50.298;18.996;2023-03-01T01:34:04;99146.27;;;-3.62;71.98
77881;BME280;67077;50.298;18.996;2023-03-01T01:36:33;99145.34;;;-3.58;71.82
77881;BME280;67077;50.298;18.996;2023-03-01T01:39:00;99140.48;;;-3.57;71.88
77881;BME280;67077;50.298;18.996;2023-03-01T01:41:28;99136.38;;;-3.58;71.93
77881;BME280;67077;50.298;18.996;2023-03-01T01:44:15;99134.62;;;-3.61;72.13
77881;BME280;67077;50.298;18.996;2023-03-01T01:52:27;99119.45;;;-3.74;72.39
77881;BME280;67077;50.298;18.996;2023-03-01T01:57:34;99117.45;;;-3.83;72.31
77881;BME280;67077;50.298;18.996;2023-03-01T02:00:12;99116.06;;;-3.84;72.49
77881;BME280;67077;50.298;18.996;2023-03-01T02:02:40;99115.92;;;-3.81;72.59
77881;BME280;67077;50.298;18.996;2023-03-01T02:05:14;99117.67;;;-3.78;72.47
77881;BME280;67077;50.298;18.996;2023-03-01T02:07:44;99112.42;;;-3.79;72.40
77881;BME280;67077;50.298;18.996;2023-03-01T02:10:12;99110.30;;;-3.79;72.43
77881;BME280;67077;50.298;18.996;2023-03-01T02:12:39;99113.69;;;-3.79;72.56
77881;BME280;67077;50.298;18.996;2023-03-01T02:15:06;99119.61;;;-3.81;72.63
77881;BME280;67077;50.298;18.996;2023-03-01T02:17:33;99113.95;;;-3.83;72.85
77881;BME280;67077;50.298;18.996;2023-03-01T02:22:35;99110.05;;;-3.91;72.84
77881;BME280;67077;50.298;18.996;2023-03-01T02:30:44;99123.63;;;-3.96;73.19
77881;BME280;67077;50.298;18.996;2023-03-01T02:33:31;99130.56;;;-3.94;72.97
77881;BME280;67077;50.298;18.996;2023-03-01T02:36:02;99131.54;;;-3.96;72.96
77881;BME280;67077;50.298;18.996;2023-03-01T02:38:30;99135.91;;;-3.98;72.97
77881;BME280;67077;50.298;18.996;2023-03-01T02:40:58;99136.45;;;-4.01;73.07
77881;BME280;67077;50.298;18.996;2023-03-01T02:43:30;99127.29;;;-4.04;73.23
77881;BME280;67077;50.298;18.996;2023-03-01T02:45:59;99122.88;;;-4.06;73.28
77881;BME280;67077;50.298;18.996;2023-03-01T02:48:40;99119.16;;;-4.08;73.27
77881;BME280;67077;50.298;18.996;2023-03-01T02:56:31;99124.01;;;-3.99;73.32
77881;BME280;67077;50.298;18.996;2023-03-01T02:58:58;99122.01;;;-3.98;73.18
77881;BME280;67077;50.298;18.996;2023-03-01T03:01:27;99122.00;;;-4.01;73.18
77881;BME280;67077;50.298;18.996;2023-03-01T03:04:08;99121.75;;;-4.05;73.44
77881;BME280;67077;50.298;18.996;2023-03-01T03:06:36;99123.02;;;-4.08;73.49
77881;BME280;67077;50.298;18.996;2023-03-01T03:09:04;99123.50;;;-4.12;73.41
77881;BME280;67077;50.298;18.996;2023-03-01T03:11:31;99124.61;;;-4.16;73.68
77881;BME280;67077;50.298;18.996;2023-03-01T03:13:58;99118.66;;;-4.19;73.75
77881;BME280;67077;50.298;18.996;2023-03-01T03:16:25;99113.45;;;-4.18;73.95
77881;BME280;67077;50.298;18.996;2023-03-01T03:18:51;99112.27;;;-4.13;73.72
77881;BME280;67077;50.298;18.996;2023-03-01T03:21:19;99112.08;;;-4.07;73.93
77881;BME280;67077;50.298;18.996;2023-03-01T03:23:46;99111.05;;;-4.05;73.43
77881;BME280;67077;50.298;18.996;2023-03-01T03:26:13;99107.92;;;-4.06;73.44
77881;BME280;67077;50.298;18.996;2023-03-01T03:28:41;99105.35;;;-4.07;73.54
77881;BME280;67077;50.298;18.996;2023-03-01T03:31:08;99101.71;;;-4.08;73.60
77881;BME280;67077;50.298;18.996;2023-03-01T03:33:36;99092.84;;;-4.09;73.52
77881;BME280;67077;50.298;18.996;2023-03-01T03:36:04;99089.95;;;-4.11;73.30
77881;BME280;67077;50.298;18.996;2023-03-01T03:38:31;99083.89;;;-4.12;73.31
77881;BME280;67077;50.298;18.996;2023-03-01T03:41:04;99085.91;;;-4.14;73.47
77881;BME280;67077;50.298;18.996;2023-03-01T03:43:38;99088.90;;;-4.11;73.45
77881;BME280;67077;50.298;18.996;2023-03-01T03:46:06;99090.77;;;-4.03;73.32
77881;BME280;67077;50.298;18.996;2023-03-01T03:48:38;99095.14;;;-3.94;73.11
77881;BME280;67077;50.298;18.996;2023-03-01T03:51:05;99094.75;;;-3.91;73.21
77881;BME280;67077;50.298;18.996;2023-03-01T03:53:32;99098.04;;;-3.90;73.15
77881;BME280;67077;50.298;18.996;2023-03-01T03:55:59;99097.56;;;-3.93;73.04
77881;BME280;67077;50.298;18.996;2023-03-01T03:58:25;99105.68;;;-3.99;73.46
77881;BME280;67077;50.298;18.996;2023-03-01T04:00:55;99101.84;;;-4.05;73.47
77881;BME280;67077;50.298;18.996;2023-03-01T04:03:23;99095.71;;;-4.10;73.58
77881;BME280;67077;50.298;18.996;2023-03-01T04:05:51;99095.65;;;-4.15;73.54
77881;BME280;67077;50.298;18.996;2023-03-01T04:08:22;99094.90;;;-4.19;73.74
77881;BME280;67077;50.298;18.996;2023-03-01T04:10:51;99089.48;;;-4.23;73.62
77881;BME280;67077;50.298;18.996;2023-03-01T04:13:20;99096.05;;;-4.21;73.64
77881;BME280;67077;50.298;18.996;2023-03-01T04:15:49;99095.75;;;-4.16;73.65
77881;BME280;67077;50.298;18.996;2023-03-01T04:18:18;99097.09;;;-4.12;73.75
77881;BME280;67077;50.298;18.996;2023-03-01T04:20:46;99100.98;;;-4.12;73.53
77881;BME280;67077;50.298;18.996;2023-03-01T04:23:18;99097.98;;;-4.15;73.52
77881;BME280;67077;50.298;18.996;2023-03-01T04:25:55;99100.83;;;-4.18;73.66
77881;BME280;67077;50.298;18.996;2023-03-01T04:28:27;99096.52;;;-4.23;73.91
77881;BME280;67077;50.298;18.996;2023-03-01T04:30:56;99098.48;;;-4.26;73.77
77881;BME280;67077;50.298;18.996;2023-03-01T04:33:24;99096.38;;;-4.28;73.98
77881;BME280;67077;50.298;18.996;2023-03-01T04:35:52;99093.91;;;-4.31;73.96
77881;BME280;67077;50.298;18.996;2023-03-01T04:38:19;99091.27;;;-4.28;73.93
77881;BME280;67077;50.298;18.996;2023-03-01T04:40:46;99087.38;;;-4.20;73.93
77881;BME280;67077;50.298;18.996;2023-03-01T04:43:13;99086.31;;;-4.12;73.66
77881;BME280;67077;50.298;18.996;2023-03-01T04:45:43;99083.98;;;-4.06;73.47
77881;BME280;67077;50.298;18.996;2023-03-01T04:48:09;99088.59;;;-4.04;73.35
77881;BME280;67077;50.298;18.996;2023-03-01T04:50:36;99088.95;;;-4.02;73.24
77881;BME280;67077;50.298;18.996;2023-03-01T04:53:03;99089.91;;;-4.00;73.11
77881;BME280;67077;50.298;18.996;2023-03-01T04:55:29;99081.11;;;-3.97;72.98
77881;BME280;67077;50.298;18.996;2023-03-01T04:58:05;99072.09;;;-3.97;72.61
77881;BME280;67077;50.298;18.996;2023-03-01T05:00:33;99070.92;;;-3.95;72.73
77881;BME280;67077;50.298;18.996;2023-03-01T05:03:03;99065.89;;;-3.96;72.62
77881;BME280;67077;50.298;18.996;2023-03-01T05:05:33;99066.85;;;-3.97;72.58
77881;BME280;67077;50.298;18.996;2023-03-01T05:08:03;99066.31;;;-4.00;72.76
77881;BME280;67077;50.298;18.996;2023-03-01T05:10:32;99068.85;;;-4.01;72.83
77881;BME280;67077;50.298;18.996;2023-03-01T05:13:00;99067.16;;;-3.97;72.53
77881;BME280;67077;50.298;18.996;2023-03-01T05:15:28;99069.94;;;-3.93;72.53
77881;BME280;67077;50.298;18.996;2023-03-01T05:17:58;99069.13;;;-3.92;72.56
77881;BME280;67077;50.298;18.996;2023-03-01T05:20:27;99069.02;;;-3.93;72.37
77881;BME280;67077;50.298;18.996;2023-03-01T05:22:58;99062.73;;;-3.94;72.39
77881;BME280;67077;50.298;18.996;2023-03-01T05:25:26;99054.00;;;-3.95;72.36
77881;BME280;67077;50.298;18.996;2023-03-01T05:27:53;99057.65;;;-3.97;72.49
77881;BME280;67077;50.298;18.996;2023-03-01T05:30:20;99053.83;;;-4.00;72.48
77881;BME280;67077;50.298;18.996;2023-03-01T05:32:49;99060.59;;;-4.04;72.74
77881;BME280;67077;50.298;18.996;2023-03-01T05:35:22;99063.83;;;-4.10;72.76
77881;BME280;67077;50.298;18.996;2023-03-01T05:37:49;99065.49;;;-4.14;72.86
77881;BME280;67077;50.298;18.996;2023-03-01T05:40:21;99067.83;;;-4.12;73.11
77881;BME280;67077;50.298;18.996;2023-03-01T05:42:52;99073.14;;;-4.12;73.09
77881;BME280;67077;50.298;18.996;2023-03-01T05:45:21;99079.58;;;-4.13;73.32
77881;BME280;67077;50.298;18.996;2023-03-01T05:47:48;99079.15;;;-4.15;73.62
77881;BME280;67077;50.298;18.996;2023-03-01T05:52:51;99082.67;;;-4.24;74.13
77881;BME280;67077;50.298;18.996;2023-03-01T05:55:20;99089.33;;;-4.25;74.19
77881;BME280;67077;50.298;18.996;2023-03-01T05:57:48;99089.43;;;-4.22;74.17
77881;BME280;67077;50.298;18.996;2023-03-01T06:00:18;99091.95;;;-4.14;74.17
77881;BME280;67077;50.298;18.996;2023-03-01T06:02:45;99091.35;;;-4.08;74.00
77881;BME280;67077;50.298;18.996;2023-03-01T06:05:13;99086.11;;;-4.06;74.07
77881;BME280;67077;50.298;18.996;2023-03-01T06:07:41;99080.20;;;-4.05;74.03
77881;BME280;67077;50.298;18.996;2023-03-01T06:10:09;99082.98;;;-4.02;74.07
77881;BME280;67077;50.298;18.996;2023-03-01T06:12:37;99081.55;;;-3.99;74.06
77881;BME280;67077;50.298;18.996;2023-03-01T06:15:05;99087.72;;;-3.96;74.25
77881;BME280;67077;50.298;18.996;2023-03-01T06:17:34;99086.70;;;-3.94;74.06
77881;BME280;67077;50.298;18.996;2023-03-01T06:20:05;99089.94;;;-3.93;73.95
77881;BME280;67077;50.298;18.996;2023-03-01T06:22:34;99092.79;;;-3.91;73.86
77881;BME280;67077;50.298;18.996;2023-03-01T06:25:01;99093.89;;;-3.88;73.84
77881;BME280;67077;50.298;18.996;2023-03-01T06:27:28;99099.47;;;-3.83;74.18
77881;BME280;67077;50.298;18.996;2023-03-01T06:29:55;99099.34;;;-3.73;73.71
77881;BME280;67077;50.298;18.996;2023-03-01T06:32:21;99101.86;;;-3.66;73.63
77881;BME280;67077;50.298;18.996;2023-03-01T06:34:49;99101.95;;;-3.63;73.26
77881;BME280;67077;50.298;18.996;2023-03-01T06:37:16;99097.57;;;-3.60;73.38
77881;BME280;67077;50.298;18.996;2023-03-01T06:39:46;99097.40;;;-3.57;73.25
77881;BME280;67077;50.298;18.996;2023-03-01T06:42:13;99095.19;;;-3.53;73.00
77881;BME280;67077;50.298;18.996;2023-03-01T06:44:40;99087.33;;;-3.49;72.88
77881;BME280;67077;50.298;18.996;2023-03-01T06:47:07;99086.83;;;-3.45;73.02
77881;BME280;67077;50.298;18.996;2023-03-01T06:49:34;99088.26;;;-3.38;72.94
77881;BME280;67077;50.298;18.996;2023-03-01T06:52:03;99088.05;;;-3.27;72.91
77881;BME280;67077;50.298;18.996;2023-03-01T06:54:30;99085.26;;;-3.18;72.51
77881;BME280;67077;50.298;18.996;2023-03-01T06:56:57;99086.08;;;-3.10;72.34
77881;BME280;67077;50.298;18.996;2023-03-01T06:59:23;99085.77;;;-3.02;72.06
77881;BME280;67077;50.298;18.996;2023-03-01T07:01:50;99087.48;;;-2.94;72.09
77881;BME280;67077;50.298;18.996;2023-03-01T07:04:17;99087.75;;;-2.86;72.18
77881;BME280;67077;50.298;18.996;2023-03-01T07:06:43;99085.41;;;-2.78;71.93
77881;BME280;67077;50.298;18.996;2023-03-01T07:09:11;99086.00;;;-2.69;71.90
77881;BME280;67077;50.298;18.996;2023-03-01T07:11:37;99086.29;;;-2.61;71.71
77881;BME280;67077;50.298;18.996;2023-03-01T07:14:04;99078.88;;;-2.52;71.61
77881;BME280;67077;50.298;18.996;2023-03-01T07:16:31;99073.73;;;-2.41;71.53
77881;BME280;67077;50.298;18.996;2023-03-01T07:18:58;99073.61;;;-2.30;71.30
77881;BME280;67077;50.298;18.996;2023-03-01T07:21:25;99070.47;;;-2.21;71.25
77881;BME280;67077;50.298;18.996;2023-03-01T07:23:52;99067.66;;;-2.12;71.21
77881;BME280;67077;50.298;18.996;2023-03-01T07:26:30;99058.77;;;-1.97;71.00
77881;BME280;67077;50.298;18.996;2023-03-01T07:29:02;99055.48;;;-1.80;70.95
77881;BME280;67077;50.298;18.996;2023-03-01T07:31:30;99055.33;;;-1.60;70.88
77881;BME280;67077;50.298;18.996;2023-03-01T07:34:07;99053.66;;;-1.45;70.50
77881;BME280;67077;50.298;18.996;2023-03-01T07:36:37;99054.95;;;-1.32;69.96
77881;BME280;67077;50.298;18.996;2023-03-01T07:39:11;99054.60;;;-1.21;69.78
77881;BME280;67077;50.298;18.996;2023-03-01T07:42:03;99055.96;;;-1.09;69.76
77881;BME280;67077;50.298;18.996;2023-03-01T07:44:47;99061.64;;;-0.96;69.40
77881;BME280;67077;50.298;18.996;2023-03-01T07:47:26;99065.00;;;-0.83;68.67
77881;BME280;67077;50.298;18.996;2023-03-01T07:50:23;99060.56;;;-0.70;67.92
77881;BME280;67077;50.298;18.996;2023-03-01T07:53:10;99060.27;;;-0.57;67.75
77881;BME280;67077;50.298;18.996;2023-03-01T07:58:02;99058.41;;;-0.22;66.87
77881;BME280;67077;50.298;18.996;2023-03-01T08:00:49;99058.23;;;-0.07;65.55
77881;BME280;67077;50.298;18.996;2023-03-01T08:03:27;99057.77;;;-0.05;64.00
77881;BME280;67077;50.298;18.996;2023-03-01T08:06:00;99044.79;;;-0.01;64.37
77881;BME280;67077;50.298;18.996;2023-03-01T08:44:00;99030.94;;;0.61;60.51
77881;BME280;67077;50.298;18.996;2023-03-01T08:46:56;99028.13;;;0.65;59.11
77881;BME280;67077;50.298;18.996;2023-03-01T08:49:46;99025.96;;;0.70;58.95
77881;BME280;67077;50.298;18.996;2023-03-01T08:52:20;99029.36;;;0.75;58.60
77881;BME280;67077;50.298;18.996;2023-03-01T08:55:30;99026.70;;;0.79;58.35
77881;BME280;67077;50.298;18.996;2023-03-01T09:04:50;99031.79;;;1.00;58.08
77881;BME280;67077;50.298;18.996;2023-03-01T09:07:28;99026.85;;;1.03;57.75
77881;BME280;67077;50.298;18.996;2023-03-01T09:10:31;99023.48;;;1.11;58.07
77881;BME280;67077;50.298;18.996;2023-03-01T09:13:02;99028.87;;;1.21;57.39
77881;BME280;67077;50.298;18.996;2023-03-01T09:15:38;99031.52;;;1.25;56.63
77881;BME280;67077;50.298;18.996;2023-03-01T09:18:15;99034.39;;;1.27;56.12
77881;BME280;67077;50.298;18.996;2023-03-01T09:21:22;99031.71;;;1.27;56.32
77881;BME280;67077;50.298;18.996;2023-03-01T09:23:55;99026.67;;;1.31;56.58
77881;BME280;67077;50.298;18.996;2023-03-01T09:26:31;99023.28;;;1.35;55.69
77881;BME280;67077;50.298;18.996;2023-03-01T09:29:00;99022.13;;;1.38;55.32
77881;BME280;67077;50.298;18.996;2023-03-01T09:31:31;99025.91;;;1.43;55.46
77881;BME280;67077;50.298;18.996;2023-03-01T09:34:16;99025.77;;;1.47;55.39
77881;BME280;67077;50.298;18.996;2023-03-01T09:37:12;99023.42;;;1.51;54.80
77881;BME280;67077;50.298;18.996;2023-03-01T09:39:55;99018.53;;;1.55;54.77
77881;BME280;67077;50.298;18.996;2023-03-01T09:43:15;99015.36;;;1.58;55.16
77881;BME280;67077;50.298;18.996;2023-03-01T09:48:50;99011.41;;;1.70;55.25
77881;BME280;67077;50.298;18.996;2023-03-01T09:55:16;99000.54;;;1.92;55.30
77881;BME280;67077;50.298;18.996;2023-03-01T09:57:54;99001.30;;;2.01;55.25
77881;BME280;67077;50.298;18.996;2023-03-01T10:03:41;98999.27;;;2.24;55.33
77881;BME280;67077;50.298;18.996;2023-03-01T10:06:36;98998.95;;;2.39;54.71
77881;BME280;67077;50.298;18.996;2023-03-01T10:09:14;99000.23;;;2.44;54.57
77881;BME280;67077;50.298;18.996;2023-03-01T10:11:56;98998.46;;;2.52;54.47
77881;BME280;67077;50.298;18.996;2023-03-01T10:14:55;98995.21;;;2.55;54.37
77881;BME280;67077;50.298;18.996;2023-03-01T10:17:35;98994.76;;;2.62;54.74
77881;BME280;67077;50.298;18.996;2023-03-01T10:32:06;98989.95;;;2.90;54.02
77881;BME280;67077;50.298;18.996;2023-03-01T10:35:41;98987.91;;;2.96;54.01
77881;BME280;67077;50.298;18.996;2023-03-01T10:39:31;98986.32;;;3.09;53.47
77881;BME280;67077;50.298;18.996;2023-03-01T10:42:41;98984.72;;;3.16;52.28
77881;BME280;67077;50.298;18.996;2023-03-01T10:45:46;98982.23;;;3.11;51.77
77881;BME280;67077;50.298;18.996;2023-03-01T10:56:13;98974.70;;;3.27;51.81
77881;BME280;67077;50.298;18.996;2023-03-01T11:01:32;98969.63;;;3.35;51.87
77881;BME280;67077;50.298;18.996;2023-03-01T11:04:11;98965.09;;;3.42;51.86
77881;BME280;67077;50.298;18.996;2023-03-01T11:06:40;98956.66;;;3.44;51.41
77881;BME280;67077;50.298;18.996;2023-03-01T11:13:16;98953.08;;;3.43;50.99
77881;BME280;67077;50.298;18.996;2023-03-01T11:16:07;98948.00;;;3.43;50.88
77881;BME280;67077;50.298;18.996;2023-03-01T11:19:14;98945.81;;;3.45;50.56
77881;BME280;67077;50.298;18.996;2023-03-01T11:24:45;98939.48;;;3.53;50.66
77881;BME280;67077;50.298;18.996;2023-03-01T11:29:46;98936.77;;;3.65;50.76
77881;BME280;67077;50.298;18.996;2023-03-01T11:33:36;98932.41;;;3.71;50.03
77881;BME280;67077;50.298;18.996;2023-03-01T11:36:30;98929.77;;;3.77;49.82
77881;BME280;67077;50.298;18.996;2023-03-01T11:38:34;98930.23;;;3.80;49.45
77881;BME280;67077;50.298;18.996;2023-03-01T11:41:14;98935.42;;;3.81;49.16
77881;BME280;67077;50.298;18.996;2023-03-01T11:52:13;98931.75;;;4.05;49.69
77881;BME280;67077;50.298;18.996;2023-03-01T12:04:00;98912.68;;;4.27;48.45
77881;BME280;67077;50.298;18.996;2023-03-01T12:07:00;98909.92;;;4.32;47.79
77881;BME280;67077;50.298;18.996;2023-03-01T12:09:43;98908.63;;;4.39;47.26
77881;BME280;67077;50.298;18.996;2023-03-01T12:18:38;98888.39;;;4.67;46.12
77881;BME280;67077;50.298;18.996;2023-03-01T12:36:22;98884.13;;;4.61;46.41
77881;BME280;67077;50.298;18.996;2023-03-01T12:41:48;98875.98;;;4.84;45.64
77881;BME280;67077;50.298;18.996;2023-03-01T12:50:50;98857.33;;;5.01;45.88
77881;BME280;67077;50.298;18.996;2023-03-01T12:53:22;98850.03;;;5.10;46.02
77881;BME280;67077;50.298;18.996;2023-03-01T12:56:00;98847.41;;;5.16;46.15
77881;BME280;67077;50.298;18.996;2023-03-01T12:58:40;98845.36;;;5.20;45.62
77881;BME280;67077;50.298;18.996;2023-03-01T13:01:29;98848.89;;;5.20;43.72
77881;BME280;67077;50.298;18.996;2023-03-01T13:07:15;98837.36;;;5.16;43.61
77881;BME280;67077;50.298;18.996;2023-03-01T13:20:55;98829.30;;;5.32;42.70
77881;BME280;67077;50.298;18.996;2023-03-01T13:23:54;98828.66;;;5.36;42.25
77881;BME280;67077;50.298;18.996;2023-03-01T13:26:23;98831.59;;;5.37;41.06
77881;BME280;67077;50.298;18.996;2023-03-01T13:29:56;98833.78;;;5.36;39.99
77881;BME280;67077;50.298;18.996;2023-03-01T13:46:50;98822.16;;;5.54;36.18
77881;BME280;67077;50.298;18.996;2023-03-01T13:49:22;98815.98;;;5.48;36.58
77881;BME280;67077;50.298;18.996;2023-03-01T13:51:51;98815.95;;;5.45;36.01
77881;BME280;67077;50.298;18.996;2023-03-01T13:54:26;98812.54;;;5.44;36.66
77881;BME280;67077;50.298;18.996;2023-03-01T13:56:56;98812.54;;;5.44;35.64
77881;BME280;67077;50.298;18.996;2023-03-01T13:59:25;98811.31;;;5.38;34.69
77881;BME280;67077;50.298;18.996;2023-03-01T14:01:58;98810.34;;;5.37;34.85
77881;BME280;67077;50.298;18.996;2023-03-01T14:04:29;98806.70;;;5.35;33.63
77881;BME280;67077;50.298;18.996;2023-03-01T14:07:19;98806.14;;;5.32;33.93
77881;BME280;67077;50.298;18.996;2023-03-01T14:09:56;98797.60;;;5.30;32.45
77881;BME280;67077;50.298;18.996;2023-03-01T14:15:20;98792.50;;;5.32;32.20
77881;BME280;67077;50.298;18.996;2023-03-01T14:20:41;98797.83;;;5.33;32.95
77881;BME280;67077;50.298;18.996;2023-03-01T14:23:19;98791.96;;;5.32;33.38
77881;BME280;67077;50.298;18.996;2023-03-01T14:25:54;98788.57;;;5.34;33.53
77881;BME280;67077;50.298;18.996;2023-03-01T14:28:24;98788.74;;;5.32;33.69
77881;BME280;67077;50.298;18.996;2023-03-01T14:30:57;98780.27;;;5.30;33.87
77881;BME280;67077;50.298;18.996;2023-03-01T14:33:26;98779.30;;;5.29;34.14
77881;BME280;67077;50.298;18.996;2023-03-01T14:36:00;98777.06;;;5.30;34.81
77881;BME280;67077;50.298;18.996;2023-03-01T14:38:35;98777.42;;;5.31;34.95
77881;BME280;67077;50.298;18.996;2023-03-01T14:41:08;98774.52;;;5.30;34.81
77881;BME280;67077;50.298;18.996;2023-03-01T14:43:39;98769.36;;;5.28;35.19
77881;BME280;67077;50.298;18.996;2023-03-01T14:46:20;98771.23;;;5.24;35.62
77881;BME280;67077;50.298;18.996;2023-03-01T14:48:52;98771.04;;;5.21;36.12
77881;BME280;67077;50.298;18.996;2023-03-01T14:51:19;98767.24;;;5.17;36.57
77881;BME280;67077;50.298;18.996;2023-03-01T14:53:46;98767.82;;;5.13;36.71
77881;BME280;67077;50.298;18.996;2023-03-01T14:56:15;98768.06;;;5.09;36.93
77881;BME280;67077;50.298;18.996;2023-03-01T14:58:46;98766.96;;;5.08;37.72
77881;BME280;67077;50.298;18.996;2023-03-01T15:01:18;98768.77;;;5.08;38.15
77881;BME280;67077;50.298;18.996;2023-03-01T15:03:47;98770.21;;;5.08;38.32
77881;BME280;67077;50.298;18.996;2023-03-01T15:06:19;98769.11;;;5.06;38.61
77881;BME280;67077;50.298;18.996;2023-03-01T15:08:51;98770.35;;;5.07;38.75
77881;BME280;67077;50.298;18.996;2023-03-01T15:11:29;98765.14;;;5.05;39.04
77881;BME280;67077;50.298;18.996;2023-03-01T15:13:59;98762.52;;;5.04;39.22
77881;BME280;67077;50.298;18.996;2023-03-01T15:16:33;98762.52;;;5.03;39.36
77881;BME280;67077;50.298;18.996;2023-03-01T15:19:05;98762.39;;;5.01;39.87
77881;BME280;67077;50.298;18.996;2023-03-01T15:21:36;98767.20;;;5.01;39.79
77881;BME280;67077;50.298;18.996;2023-03-01T15:24:16;98763.93;;;4.98;39.78
77881;BME280;67077;50.298;18.996;2023-03-01T15:29:25;98762.56;;;4.94;40.20
77881;BME280;67077;50.298;18.996;2023-03-01T15:37:51;98756.11;;;4.85;40.49
77881;BME280;67077;50.298;18.996;2023-03-01T15:46:31;98751.78;;;4.73;40.97
77881;BME280;67077;50.298;18.996;2023-03-01T15:52:21;98750.05;;;4.65;41.27
77881;BME280;67077;50.298;18.996;2023-03-01T15:55:22;98751.55;;;4.59;41.35
77881;BME280;67077;50.298;18.996;2023-03-01T15:57:58;98758.28;;;4.55;41.17
77881;BME280;67077;50.298;18.996;2023-03-01T16:00:27;98763.04;;;4.50;41.51
77881;BME280;67077;50.298;18.996;2023-03-01T16:02:58;98763.15;;;4.44;41.95
77881;BME280;67077;50.298;18.996;2023-03-01T16:05:28;98768.48;;;4.38;42.08
77881;BME280;67077;50.298;18.996;2023-03-01T16:07:55;98770.94;;;4.30;42.19
77881;BME280;67077;50.298;18.996;2023-03-01T16:10:21;98769.23;;;4.22;42.41
77881;BME280;67077;50.298;18.996;2023-03-01T16:12:49;98771.56;;;4.15;42.40
77881;BME280;67077;50.298;18.996;2023-03-01T16:15:24;98773.67;;;4.09;42.59
77881;BME280;67077;50.298;18.996;2023-03-01T16:17:51;98775.95;;;4.01;42.94
77881;BME280;67077;50.298;18.996;2023-03-01T16:20:18;98777.38;;;3.94;43.20
77881;BME280;67077;50.298;18.996;2023-03-01T16:22:45;98783.05;;;3.86;43.53
77881;BME280;67077;50.298;18.996;2023-03-01T16:25:14;98786.80;;;3.79;43.80
77881;BME280;67077;50.298;18.996;2023-03-01T16:27:43;98788.30;;;3.72;43.85
77881;BME280;67077;50.298;18.996;2023-03-01T16:30:11;98787.65;;;3.64;43.70
77881;BME280;67077;50.298;18.996;2023-03-01T16:32:40;98787.31;;;3.57;43.92
77881;BME280;67077;50.298;18.996;2023-03-01T16:35:09;98786.23;;;3.50;43.90
77881;BME280;67077;50.298;18.996;2023-03-01T16:37:37;98788.94;;;3.45;43.62
77881;BME280;67077;50.298;18.996;2023-03-01T16:40:06;98787.70;;;3.40;43.43
77881;BME280;67077;50.298;18.996;2023-03-01T16:42:39;98792.52;;;3.34;43.74
77881;BME280;67077;50.298;18.996;2023-03-01T16:45:06;98794.59;;;3.28;44.09
77881;BME280;67077;50.298;18.996;2023-03-01T16:47:33;98796.79;;;3.20;43.68
77881;BME280;67077;50.298;18.996;2023-03-01T16:50:00;98796.44;;;3.13;44.08
77881;BME280;67077;50.298;18.996;2023-03-01T16:52:30;98790.42;;;3.08;43.87
77881;BME280;67077;50.298;18.996;2023-03-01T16:54:57;98792.43;;;3.02;44.10
77881;BME280;67077;50.298;18.996;2023-03-01T16:57:24;98792.69;;;2.95;44.18
77881;BME280;67077;50.298;18.996;2023-03-01T16:59:52;98794.26;;;2.88;44.70
77881;BME280;67077;50.298;18.996;2023-03-01T17:02:20;98795.00;;;2.81;44.39